createdAt,value
2022-10-19T00:00:08.755Z,101062.77
2022-10-19T00:02:56.432Z,101063.27
2022-10-19T00:05:24.128Z,101059.80
2022-10-19T00:07:51.891Z,101054.48
2022-10-19T00:10:19.651Z,101055.98
2022-10-19T00:15:16.190Z,101056.35
2022-10-19T00:17:44.500Z,101061.77
2022-10-19T00:20:12.641Z,101062.45
2022-10-19T00:22:40.507Z,101065.11
2022-10-19T00:25:08.592Z,101062.48
2022-10-19T00:27:37.347Z,101068.29
2022-10-19T00:30:05.812Z,101064.66
2022-10-19T00:32:33.919Z,101068.54
2022-10-19T00:35:03.654Z,101067.73
2022-10-19T00:37:31.482Z,101066.96
2022-10-19T00:39:59.315Z,101058.39
2022-10-19T00:42:27.101Z,101058.83
2022-10-19T00:44:59.690Z,101059.77
2022-10-19T00:47:28.092Z,101056.77
2022-10-19T00:49:57.262Z,101054.45
2022-10-19T00:52:25.559Z,101051.83
2022-10-19T00:54:54.169Z,101051.06
2022-10-19T00:57:22.985Z,101052.10
2022-10-19T00:59:51.387Z,101046.73
2022-10-19T01:02:19.108Z,101049.32
2022-10-19T01:04:49.230Z,101047.73
2022-10-19T01:07:17.266Z,101048.01
2022-10-19T01:09:45.201Z,101042.50
2022-10-19T01:12:15.833Z,101046.59
2022-10-19T01:15:02.712Z,101046.29
2022-10-19T01:17:39.513Z,101047.54
2022-10-19T01:20:26.020Z,101049.80
2022-10-19T01:23:31.811Z,101043.48
2022-10-19T01:26:29.967Z,101037.84
2022-10-19T01:29:35.243Z,101033.52
2022-10-19T01:32:10.072Z,101023.11
2022-10-19T01:34:44.725Z,101027.50
2022-10-19T01:37:26.605Z,101025.42
2022-10-19T01:40:05.086Z,101033.76
2022-10-19T01:42:42.339Z,101036.31
2022-10-19T01:45:27.345Z,101044.67
2022-10-19T01:48:22.465Z,101038.44
2022-10-19T01:51:02.581Z,101039.73
2022-10-19T01:53:34.651Z,101035.77
2022-10-19T01:56:03.342Z,101035.70
2022-10-19T01:58:34.167Z,101037.31
2022-10-19T02:01:05.381Z,101029.98
2022-10-19T02:03:34.707Z,101037.39
2022-10-19T02:06:06.854Z,101036.15
2022-10-19T02:08:41.644Z,101032.75
2022-10-19T02:11:09.554Z,101031.55
2022-10-19T02:13:39.217Z,101031.78
2022-10-19T02:16:12.054Z,101034.61
2022-10-19T02:18:45.166Z,101034.80
2022-10-19T02:21:12.964Z,101031.65
2022-10-19T02:23:40.775Z,101032.13
2022-10-19T02:26:08.783Z,101031.48
2022-10-19T02:28:36.709Z,101031.78
2022-10-19T02:31:07.078Z,101033.79
2022-10-19T02:33:34.885Z,101030.95
2022-10-19T02:36:03.922Z,101032.63
2022-10-19T02:38:31.889Z,101029.91
2022-10-19T02:41:15.966Z,101032.60
2022-10-19T02:43:50.547Z,101027.06
2022-10-19T02:46:28.128Z,101024.51
2022-10-19T02:48:57.225Z,101017.77
2022-10-19T02:51:36.616Z,101015.04
2022-10-19T02:54:08.376Z,101015.91
2022-10-19T02:56:36.138Z,101016.84
2022-10-19T02:59:04.195Z,101016.09
2022-10-19T03:01:31.991Z,101014.46
2022-10-19T03:03:59.777Z,101015.71
2022-10-19T03:06:27.610Z,101021.78
2022-10-19T03:08:55.411Z,101021.30
2022-10-19T03:11:23.122Z,101018.52
2022-10-19T03:13:50.844Z,101018.66
2022-10-19T03:16:19.017Z,101019.42
2022-10-19T03:18:48.739Z,101019.32
2022-10-19T03:21:16.799Z,101014.98
2022-10-19T03:23:44.502Z,101014.55
2022-10-19T03:26:16.329Z,101014.29
2022-10-19T03:28:44.220Z,101015.59
2022-10-19T03:31:12.094Z,101013.67
2022-10-19T03:33:39.959Z,101015.16
2022-10-19T03:36:17.828Z,101012.65
2022-10-19T03:38:45.725Z,101009.69
2022-10-19T03:41:13.535Z,101013.64
2022-10-19T03:43:41.334Z,101015.38
2022-10-19T03:46:09.429Z,101014.65
2022-10-19T03:48:37.270Z,101010.48
2022-10-19T03:51:07.742Z,101010.04
2022-10-19T03:53:43.096Z,101011.02
2022-10-19T03:56:13.501Z,101008.45
2022-10-19T03:58:42.415Z,101017.53
2022-10-19T04:01:21.438Z,101018.38
2022-10-19T04:03:54.479Z,101015.77
2022-10-19T04:06:26.062Z,101023.69
2022-10-19T04:08:53.890Z,101026.09
2022-10-19T04:11:24.739Z,101023.92
2022-10-19T04:13:53.510Z,101025.26
2022-10-19T04:16:22.483Z,101019.86
2022-10-19T04:18:50.715Z,101024.71
2022-10-19T04:21:22.916Z,101025.84
2022-10-19T04:23:53.620Z,101025.55
2022-10-19T04:26:21.433Z,101028.25
2022-10-19T04:28:49.775Z,101024.92
2022-10-19T04:31:17.580Z,101018.75
2022-10-19T04:36:14.167Z,101026.19
2022-10-19T04:38:42.018Z,101022.91
2022-10-19T04:41:12.651Z,101019.47
2022-10-19T04:43:40.975Z,101018.95
2022-10-19T04:46:19.298Z,101019.12
2022-10-19T04:48:50.346Z,101025.48
2022-10-19T04:51:24.537Z,101028.20
2022-10-19T04:53:57.006Z,101032.09
2022-10-19T04:56:28.173Z,101032.55
2022-10-19T04:58:57.514Z,101030.08
2022-10-19T05:01:27.428Z,101023.07
2022-10-19T05:04:00.637Z,101024.52
2022-10-19T05:06:29.867Z,101026.92
2022-10-19T05:08:57.702Z,101028.04
2022-10-19T05:11:26.095Z,101025.47
2022-10-19T05:13:54.189Z,101025.70
2022-10-19T05:16:23.926Z,101022.79
2022-10-19T05:18:56.153Z,101020.52
2022-10-19T05:21:24.399Z,101021.68
2022-10-19T05:23:53.612Z,101023.58
2022-10-19T05:26:23.654Z,101029.09
2022-10-19T05:28:57.060Z,101034.43
2022-10-19T05:31:27.276Z,101034.15
2022-10-19T05:33:58.595Z,101033.09
2022-10-19T05:36:28.920Z,101037.50
2022-10-19T05:38:57.716Z,101042.16
2022-10-19T05:41:26.427Z,101039.61
2022-10-19T05:43:56.422Z,101046.17
2022-10-19T05:46:24.826Z,101054.48
2022-10-19T05:48:52.750Z,101059.34
2022-10-19T05:51:22.308Z,101058.21
2022-10-19T05:53:50.172Z,101058.84
2022-10-19T05:56:20.505Z,101056.71
2022-10-19T05:58:49.147Z,101056.09
2022-10-19T06:01:19.085Z,101055.54
2022-10-19T06:03:48.105Z,101061.67
2022-10-19T06:06:15.867Z,101064.00
2022-10-19T06:08:43.802Z,101063.77
2022-10-19T06:11:20.368Z,101065.67
2022-10-19T06:13:50.505Z,101070.23
2022-10-19T06:16:19.631Z,101070.24
2022-10-19T06:18:47.425Z,101079.22
2022-10-19T06:21:21.231Z,101077.26
2022-10-19T06:23:53.484Z,101075.92
2022-10-19T06:26:21.157Z,101079.48
2022-10-19T06:28:49.972Z,101074.64
2022-10-19T06:31:18.399Z,101079.83
2022-10-19T06:33:49.192Z,101085.89
2022-10-19T06:36:22.725Z,101082.71
2022-10-19T06:38:51.413Z,101079.27
2022-10-19T06:41:19.520Z,101081.92
2022-10-19T06:43:51.446Z,101082.94
2022-10-19T06:46:22.034Z,101087.73
2022-10-19T06:48:57.577Z,101091.17
2022-10-19T06:51:26.902Z,101088.84
2022-10-19T06:53:57.026Z,101088.73
2022-10-19T06:56:26.653Z,101085.06
2022-10-19T06:58:54.729Z,101088.61
2022-10-19T07:01:23.377Z,101092.54
2022-10-19T07:03:52.410Z,101095.35
2022-10-19T07:06:20.805Z,101100.64
2022-10-19T07:08:48.751Z,101098.75
2022-10-19T07:11:18.960Z,101113.06
2022-10-19T07:13:46.891Z,101118.26
2022-10-19T07:16:19.779Z,101119.70
2022-10-19T07:18:53.085Z,101116.39
2022-10-19T07:21:22.593Z,101118.75
2022-10-19T07:23:50.942Z,101125.10
2022-10-19T07:26:27.357Z,101124.04
2022-10-19T07:28:56.865Z,101128.73
2022-10-19T07:31:25.701Z,101121.09
2022-10-19T07:33:54.982Z,101126.27
2022-10-19T07:36:26.414Z,101124.88
2022-10-19T07:38:54.519Z,101124.98
2022-10-19T07:41:25.206Z,101127.38
2022-10-19T07:43:53.525Z,101124.14
2022-10-19T07:46:25.257Z,101126.69
2022-10-19T07:48:53.550Z,101129.65
2022-10-19T07:51:22.673Z,101129.98
2022-10-19T07:53:50.632Z,101133.20
2022-10-19T07:56:20.860Z,101129.35
2022-10-19T07:58:49.972Z,101128.23
2022-10-19T08:01:20.198Z,101131.06
2022-10-19T08:06:37.457Z,101134.32
2022-10-19T08:09:05.805Z,101136.83
2022-10-19T08:11:35.428Z,101139.48
2022-10-19T08:14:04.057Z,101141.36
2022-10-19T08:16:37.448Z,101139.34
2022-10-19T08:19:08.062Z,101134.86
2022-10-19T08:21:37.092Z,101138.50
2022-10-19T08:24:06.057Z,101132.78
2022-10-19T08:26:36.085Z,101137.30
2022-10-19T08:29:05.861Z,101131.80
2022-10-19T08:31:33.712Z,101135.65
2022-10-19T08:34:01.535Z,101137.04
2022-10-19T08:36:31.356Z,101138.11
2022-10-19T08:38:59.173Z,101137.45
2022-10-19T08:41:38.023Z,101137.98
2022-10-19T08:44:39.880Z,101137.44
2022-10-19T08:47:27.592Z,101137.51
2022-10-19T08:49:59.123Z,101137.96
2022-10-19T08:52:34.272Z,101133.82
2022-10-19T08:55:09.041Z,101139.73
2022-10-19T08:57:37.318Z,101138.24
2022-10-19T09:03:27.105Z,101138.65
2022-10-19T09:06:22.589Z,101136.58
2022-10-19T09:08:55.429Z,101139.59
2022-10-19T09:11:30.850Z,101141.17
2022-10-19T09:14:26.141Z,101139.59
2022-10-19T09:16:59.230Z,101144.56
2022-10-19T09:19:30.131Z,101147.27
2022-10-19T09:21:59.270Z,101149.26
2022-10-19T09:24:30.417Z,101153.75
2022-10-19T09:27:02.038Z,101149.05
2022-10-19T09:29:37.187Z,101154.99
2022-10-19T09:32:12.468Z,101153.73
2022-10-19T09:34:46.826Z,101160.02
2022-10-19T09:37:23.250Z,101164.33
2022-10-19T09:39:55.191Z,101158.18
2022-10-19T09:42:33.022Z,101167.73
2022-10-19T09:45:06.786Z,101163.80
2022-10-19T09:47:39.569Z,101164.50
2022-10-19T09:50:08.914Z,101172.37
2022-10-19T09:52:40.655Z,101170.81
2022-10-19T09:55:14.628Z,101174.35
2022-10-19T09:57:59.514Z,101178.95
2022-10-19T10:00:36.738Z,101173.71
2022-10-19T10:03:06.222Z,101170.17
2022-10-19T10:05:39.096Z,101170.75
2022-10-19T10:08:14.789Z,101175.07
2022-10-19T10:10:49.091Z,101178.58
2022-10-19T10:13:18.794Z,101173.69
2022-10-19T10:15:54.792Z,101170.17
2022-10-19T10:18:23.896Z,101171.44
2022-10-19T10:21:32.184Z,101170.39
2022-10-19T10:24:12.048Z,101167.45
2022-10-19T10:26:42.589Z,101171.79
2022-10-19T10:29:18.061Z,101167.02
2022-10-19T10:31:49.051Z,101167.25
2022-10-19T10:34:38.573Z,101164.16
2022-10-19T10:37:19.498Z,101160.29
2022-10-19T10:39:51.971Z,101156.88
2022-10-19T10:42:26.487Z,101160.11
2022-10-19T10:44:56.309Z,101159.09
2022-10-19T10:47:27.068Z,101158.94
2022-10-19T10:50:07.070Z,101156.35
2022-10-19T10:52:37.081Z,101159.06
2022-10-19T10:55:08.566Z,101155.91
2022-10-19T10:57:53.915Z,101154.02
2022-10-19T11:00:25.122Z,101155.66
2022-10-19T11:03:05.393Z,101152.48
2022-10-19T11:05:41.116Z,101159.41
2022-10-19T11:08:27.605Z,101163.52
2022-10-19T11:11:15.009Z,101166.27
2022-10-19T11:13:47.791Z,101166.55
2022-10-19T11:16:18.296Z,101172.80
2022-10-19T11:18:53.832Z,101167.83
2022-10-19T11:21:47.103Z,101164.79
2022-10-19T11:27:27.712Z,101160.59
2022-10-19T11:30:13.571Z,101169.80
2022-10-19T11:33:02.048Z,101173.02
2022-10-19T11:35:39.323Z,101168.98
2022-10-19T11:38:29.758Z,101168.85
2022-10-19T11:41:39.280Z,101171.66
2022-10-19T11:44:23.644Z,101167.41
2022-10-19T11:47:01.031Z,101170.86
2022-10-19T11:49:34.762Z,101176.53
2022-10-19T11:52:49.712Z,101175.04
2022-10-19T11:55:33.574Z,101175.69
2022-10-19T11:58:32.347Z,101176.15
2022-10-19T12:01:40.925Z,101171.74
2022-10-19T12:04:28.690Z,101172.60
2022-10-19T12:07:18.120Z,101175.89
2022-10-19T12:10:08.439Z,101174.30
2022-10-19T12:12:45.190Z,101172.88
2022-10-19T12:15:28.203Z,101171.36
2022-10-19T12:18:01.808Z,101172.20
2022-10-19T12:20:50.324Z,101169.20
2022-10-19T12:23:27.044Z,101168.68
2022-10-19T12:25:56.647Z,101172.64
2022-10-19T12:28:55.735Z,101172.36
2022-10-19T12:31:31.974Z,101173.48
2022-10-19T12:34:09.996Z,101172.41
2022-10-19T12:36:45.694Z,101169.59
2022-10-19T12:39:21.490Z,101167.81
2022-10-19T12:42:18.766Z,101173.52
2022-10-19T12:45:06.879Z,101174.13
2022-10-19T12:47:34.976Z,101174.54
2022-10-19T12:50:03.554Z,101182.94
2022-10-19T12:52:36.524Z,101176.88
2022-10-19T12:55:16.836Z,101178.65
2022-10-19T12:57:48.311Z,101178.94
2022-10-19T13:00:25.226Z,101175.85
2022-10-19T13:03:00.056Z,101179.45
2022-10-19T13:05:29.761Z,101180.41
2022-10-19T13:07:58.355Z,101181.91
2022-10-19T13:10:28.243Z,101179.63
2022-10-19T13:12:56.226Z,101183.71
2022-10-19T13:15:36.577Z,101183.68
2022-10-19T13:18:16.902Z,101175.73
2022-10-19T13:20:52.637Z,101175.11
2022-10-19T13:23:26.568Z,101172.29
2022-10-19T13:26:32.985Z,101176.83
2022-10-19T13:29:01.354Z,101177.35
2022-10-19T13:31:31.081Z,101176.39
2022-10-19T13:33:59.108Z,101173.14
2022-10-19T13:36:27.319Z,101168.69
2022-10-19T13:39:03.037Z,101163.59
2022-10-19T13:41:37.133Z,101163.39
2022-10-19T13:44:18.262Z,101164.80
2022-10-19T13:47:08.739Z,101168.51
2022-10-19T13:50:04.434Z,101165.26
2022-10-19T13:52:42.625Z,101168.91
2022-10-19T13:55:47.239Z,101165.77
2022-10-19T13:58:46.417Z,101164.64
2022-10-19T14:01:55.407Z,101162.91
2022-10-19T14:04:40.899Z,101148.60
2022-10-19T14:07:25.191Z,101149.91
2022-10-19T14:10:08.346Z,101146.38
2022-10-19T14:12:40.861Z,101141.52
2022-10-19T14:15:27.416Z,101144.28
2022-10-19T14:17:57.766Z,101140.29
2022-10-19T14:20:56.184Z,101137.52
2022-10-19T14:23:32.621Z,101145.34
2022-10-19T14:26:15.366Z,101144.30
2022-10-19T14:28:43.492Z,101145.54
2022-10-19T14:31:19.193Z,101144.89
2022-10-19T14:33:48.684Z,101146.78
2022-10-19T14:36:22.383Z,101145.45
2022-10-19T14:38:55.089Z,101143.20
2022-10-19T14:41:28.900Z,101140.23
2022-10-19T14:44:10.006Z,101143.10
2022-10-19T14:46:50.086Z,101147.18
2022-10-19T14:49:21.354Z,101142.63
2022-10-19T14:51:52.177Z,101147.87
2022-10-19T14:54:25.661Z,101146.65
2022-10-19T14:56:56.479Z,101151.00
2022-10-19T14:59:35.797Z,101148.12
2022-10-19T15:02:37.518Z,101141.52
2022-10-19T15:05:07.112Z,101142.48
2022-10-19T15:07:40.495Z,101144.02
2022-10-19T15:10:18.741Z,101141.34
2022-10-19T15:12:46.678Z,101138.47
2022-10-19T15:15:37.441Z,101144.55
2022-10-19T15:18:06.591Z,101146.25
2022-10-19T15:20:49.227Z,101148.52
2022-10-19T15:23:39.075Z,101143.08
2022-10-19T15:26:37.120Z,101144.95
2022-10-19T15:29:20.817Z,101147.40
2022-10-19T15:32:21.945Z,101152.82
2022-10-19T15:34:49.830Z,101145.30
2022-10-19T15:37:23.090Z,101141.08
2022-10-19T15:39:52.012Z,101142.88
2022-10-19T15:42:52.278Z,101146.54
2022-10-19T15:45:37.618Z,101148.16
2022-10-19T15:48:24.710Z,101142.95
2022-10-19T15:50:55.770Z,101147.60
2022-10-19T15:53:26.971Z,101147.17
2022-10-19T15:55:55.452Z,101148.44
2022-10-19T15:58:26.663Z,101146.99
2022-10-19T16:04:28.495Z,101154.63
2022-10-19T16:07:11.609Z,101149.12
2022-10-19T16:09:57.343Z,101155.42
2022-10-19T16:12:44.503Z,101153.97
2022-10-19T16:15:14.076Z,101163.17
2022-10-19T16:17:57.440Z,101162.72
2022-10-19T16:20:37.655Z,101167.63
2022-10-19T16:23:23.048Z,101167.51
2022-10-19T16:25:57.303Z,101169.23
2022-10-19T16:28:59.646Z,101169.86
2022-10-19T16:31:56.981Z,101170.67
2022-10-19T16:34:26.472Z,101180.23
2022-10-19T16:37:04.258Z,101183.59
2022-10-19T16:39:34.947Z,101188.06
2022-10-19T16:42:34.044Z,101188.19
2022-10-19T16:45:16.938Z,101197.16
2022-10-19T16:48:09.932Z,101206.92
2022-10-19T16:50:41.232Z,101204.68
2022-10-19T16:53:20.742Z,101208.94
2022-10-19T16:55:52.049Z,101206.42
2022-10-19T16:58:37.268Z,101206.81
2022-10-19T17:01:19.077Z,101206.19
2022-10-19T17:05:07.874Z,101210.84
2022-10-19T17:08:36.753Z,101210.05
2022-10-19T17:12:03.946Z,101217.96
2022-10-19T17:15:40.831Z,101223.98
2022-10-19T17:18:35.872Z,101226.23
2022-10-19T17:24:53.605Z,101234.06
2022-10-19T17:27:39.573Z,101235.98
2022-10-19T17:31:21.686Z,101244.88
2022-10-19T17:34:03.408Z,101242.32
2022-10-19T17:39:53.363Z,101252.52
2022-10-19T17:42:49.321Z,101251.96
2022-10-19T17:45:35.643Z,101254.15
2022-10-19T17:48:17.160Z,101255.13
2022-10-19T17:54:21.638Z,101257.34
2022-10-19T17:56:54.512Z,101258.09
2022-10-19T17:59:46.678Z,101260.56
2022-10-19T18:02:31.803Z,101264.47
2022-10-19T18:05:07.051Z,101266.23
2022-10-19T18:07:46.683Z,101270.61
2022-10-19T18:10:16.341Z,101270.73
2022-10-19T18:13:00.225Z,101275.55
2022-10-19T18:15:35.543Z,101273.96
2022-10-19T18:18:41.137Z,101278.39
2022-10-19T18:21:24.014Z,101276.24
2022-10-19T18:24:27.344Z,101276.05
2022-10-19T18:26:55.224Z,101279.69
2022-10-19T18:30:01.408Z,101279.33
2022-10-19T18:32:25.177Z,101282.73
2022-10-19T18:35:01.374Z,101280.32
2022-10-19T18:37:42.189Z,101277.83
2022-10-19T18:40:11.934Z,101284.92
2022-10-19T18:42:55.968Z,101282.63
2022-10-19T18:46:01.276Z,101283.73
2022-10-19T18:48:42.057Z,101286.12
2022-10-19T18:57:09.358Z,101287.13
2022-10-19T19:01:05.303Z,101291.38
2022-10-19T19:11:59.667Z,101299.63
2022-10-19T19:14:32.529Z,101300.35
2022-10-19T19:22:51.099Z,101303.88
2022-10-19T19:24:49.077Z,101301.44
2022-10-19T19:25:08.305Z,101301.27
2022-10-19T19:27:42.062Z,101307.55
2022-10-19T19:30:51.363Z,101309.63
2022-10-19T19:33:23.793Z,101309.48
2022-10-19T19:36:18.548Z,101306.08
2022-10-19T19:38:51.518Z,101304.49
2022-10-19T19:41:19.945Z,101308.58
2022-10-19T19:43:47.976Z,101312.89
2022-10-19T19:46:17.941Z,101313.47
2022-10-19T19:48:47.992Z,101321.67
2022-10-19T19:51:18.616Z,101321.05
2022-10-19T19:53:47.666Z,101318.99
2022-10-19T19:56:22.164Z,101319.39
2022-10-19T19:58:54.588Z,101316.11
2022-10-19T20:01:22.695Z,101317.40
2022-10-19T20:03:52.995Z,101318.64
2022-10-19T20:06:26.147Z,101319.99
2022-10-19T20:08:57.482Z,101319.13
2022-10-19T20:11:41.238Z,101319.45
2022-10-19T20:14:16.749Z,101321.70
2022-10-19T20:16:44.686Z,101325.34
2022-10-19T20:19:38.346Z,101323.88
2022-10-19T20:22:07.363Z,101323.43
2022-10-19T20:24:36.945Z,101321.11
2022-10-19T20:27:43.794Z,101320.98
2022-10-19T20:30:11.897Z,101320.14
2022-10-19T20:36:12.355Z,101317.67
2022-10-19T20:38:40.833Z,101318.72
2022-10-19T20:41:10.472Z,101321.70
2022-10-19T20:43:39.020Z,101321.64
2022-10-19T20:46:25.011Z,101323.08
2022-10-19T20:49:02.093Z,101323.91
2022-10-19T20:51:32.854Z,101326.05
2022-10-19T20:54:02.728Z,101331.14
2022-10-19T20:56:34.468Z,101334.35
2022-10-19T20:59:05.155Z,101335.88
2022-10-19T21:01:35.701Z,101339.10
2022-10-19T21:04:05.159Z,101343.91
2022-10-19T21:07:32.054Z,101341.38
2022-10-19T21:10:03.019Z,101340.39
2022-10-19T21:12:30.737Z,101333.80
2022-10-19T21:14:58.547Z,101342.66
2022-10-19T21:17:29.129Z,101341.45
2022-10-19T21:22:46.197Z,101337.31
2022-10-19T21:25:13.939Z,101340.32
2022-10-19T21:27:41.709Z,101340.89
2022-10-19T21:30:10.114Z,101338.07
2022-10-19T21:32:37.874Z,101343.30
2022-10-19T21:35:05.970Z,101343.55
2022-10-19T21:37:36.340Z,101344.63
2022-10-19T21:40:04.451Z,101345.91
2022-10-19T21:42:32.159Z,101349.07
2022-10-19T21:45:11.822Z,101349.55
2022-10-19T21:47:48.899Z,101348.42
2022-10-19T21:50:17.481Z,101352.50
2022-10-19T21:52:45.338Z,101349.45
2022-10-19T21:55:13.130Z,101348.13
2022-10-19T21:57:40.920Z,101348.95
2022-10-19T22:00:09.292Z,101354.04
2022-10-19T22:02:40.666Z,101350.70
2022-10-19T22:05:08.592Z,101353.65
2022-10-19T22:07:36.699Z,101356.39
2022-10-19T22:10:05.151Z,101359.88
2022-10-19T22:12:33.149Z,101363.27
2022-10-19T22:15:01.052Z,101360.66
2022-10-19T22:17:28.799Z,101359.96
2022-10-19T22:19:56.549Z,101360.45
2022-10-19T22:22:24.306Z,101358.58
2022-10-19T22:24:52.053Z,101355.46
2022-10-19T22:27:19.813Z,101357.14
2022-10-19T22:29:47.620Z,101356.47
2022-10-19T22:32:15.362Z,101350.88
2022-10-19T22:34:43.071Z,101355.09
2022-10-19T22:37:10.795Z,101362.31
2022-10-19T22:39:38.709Z,101366.45
2022-10-19T22:42:06.480Z,101362.55
2022-10-19T22:44:34.265Z,101361.10
2022-10-19T22:47:02.047Z,101362.00
2022-10-19T22:49:29.831Z,101365.13
2022-10-19T22:51:57.553Z,101361.60
2022-10-19T22:54:25.826Z,101365.48
2022-10-19T22:56:53.674Z,101370.93
2022-10-19T22:59:21.491Z,101366.92
2022-10-19T23:01:49.276Z,101365.95
2022-10-19T23:04:17.047Z,101366.38
2022-10-19T23:06:44.795Z,101371.52
2022-10-19T23:09:12.676Z,101370.48
2022-10-19T23:11:40.380Z,101369.98
2022-10-19T23:14:09.360Z,101367.83
2022-10-19T23:16:37.128Z,101364.11
2022-10-19T23:19:04.845Z,101361.81
2022-10-19T23:21:32.648Z,101361.92
2022-10-19T23:24:00.656Z,101361.29
2022-10-19T23:26:28.440Z,101361.66
2022-10-19T23:28:56.154Z,101369.27
2022-10-19T23:31:26.416Z,101365.80
2022-10-19T23:33:54.452Z,101369.57
2022-10-19T23:36:24.452Z,101372.61
2022-10-19T23:38:53.499Z,101372.76
2022-10-19T23:41:21.915Z,101370.54
2022-10-19T23:43:49.865Z,101367.94
2022-10-19T23:46:17.644Z,101365.00
2022-10-19T23:48:45.418Z,101362.34
2022-10-19T23:51:16.236Z,101361.08
2022-10-19T23:53:45.577Z,101360.52
2022-10-19T23:56:16.031Z,101356.21
2022-10-19T23:58:44.387Z,101352.53
